createdAt,value
2022-12-17T11:30:00.701Z,4.29
2022-12-17T11:33:01.083Z,4.93
2022-12-17T11:36:14.875Z,5.34
2022-12-17T11:39:17.546Z,5.56
2022-12-17T11:42:23.190Z,5.77
2022-12-17T11:45:32.709Z,5.71
2022-12-17T11:48:25.164Z,5.63
2022-12-17T11:51:27.248Z,5.84
2022-12-17T11:54:27.916Z,5.92
2022-12-17T11:57:35.634Z,6.15
2022-12-17T12:00:44.704Z,6.21
2022-12-17T12:03:54.293Z,6.41
2022-12-17T12:06:46.991Z,6.51
2022-12-17T12:09:42.453Z,6.53
2022-12-17T12:12:37.224Z,6.63
2022-12-17T12:15:25.127Z,6.48
2022-12-17T12:18:21.650Z,6.50
2022-12-17T12:21:13.127Z,6.53
2022-12-17T12:23:58.160Z,6.50
2022-12-17T12:26:51.283Z,6.32
2022-12-17T12:30:04.183Z,6.46
2022-12-17T12:33:11.969Z,6.57
2022-12-17T12:35:58.675Z,6.69
2022-12-17T12:38:50.880Z,6.84
2022-12-17T12:42:01.627Z,6.87
2022-12-17T12:44:55.908Z,6.79
2022-12-17T12:48:04.322Z,6.80
2022-12-17T12:51:03.888Z,6.73
2022-12-17T12:53:49.329Z,6.77
2022-12-17T12:56:51.039Z,6.59
2022-12-17T12:59:45.032Z,6.61
2022-12-17T13:02:44.596Z,6.66
2022-12-17T13:05:34.336Z,6.47
2022-12-17T13:08:10.130Z,6.56
2022-12-17T13:10:37.572Z,6.56
2022-12-17T13:13:16.217Z,6.43
2022-12-17T13:15:47.991Z,6.38
2022-12-17T13:18:29.812Z,6.35
2022-12-17T13:20:59.918Z,6.31
2022-12-17T13:23:31.118Z,6.21
2022-12-17T13:26:18.817Z,6.00
2022-12-17T13:29:00.778Z,5.96
2022-12-17T13:31:43.998Z,5.97
2022-12-17T13:34:44.784Z,6.09
2022-12-17T13:37:14.263Z,6.29
2022-12-17T13:39:53.018Z,6.31
2022-12-17T13:42:28.545Z,6.28
2022-12-17T13:44:56.430Z,6.37
2022-12-17T13:47:30.592Z,6.56
2022-12-17T13:52:47.719Z,6.48
2022-12-17T13:55:26.885Z,6.29
2022-12-17T13:57:54.195Z,6.23
2022-12-17T14:00:30.341Z,5.89
2022-12-17T14:02:57.172Z,5.80
2022-12-17T14:05:42.313Z,5.79
2022-12-17T14:08:12.889Z,5.76
2022-12-17T14:10:52.047Z,5.72
2022-12-17T14:13:19.060Z,5.55
2022-12-17T14:15:49.432Z,5.33
2022-12-17T14:18:19.428Z,5.45
2022-12-17T14:20:47.577Z,5.42
2022-12-17T14:23:25.505Z,5.30
2022-12-17T14:25:52.405Z,5.34
2022-12-17T14:28:23.983Z,5.40
2022-12-17T14:31:25.126Z,5.36
2022-12-17T14:33:38.570Z,5.22
2022-12-17T14:36:21.348Z,5.23
2022-12-17T14:38:55.477Z,5.11
2022-12-17T14:41:43.529Z,4.79
2022-12-17T14:44:22.047Z,5.02
2022-12-17T14:47:08.314Z,5.00
2022-12-17T14:49:34.922Z,4.92
2022-12-17T14:52:13.119Z,4.91
2022-12-17T14:54:45.812Z,4.80
2022-12-17T14:57:23.114Z,4.72
2022-12-17T14:59:50.637Z,4.63
2022-12-17T15:02:27.627Z,4.53
2022-12-17T15:04:57.701Z,4.47
2022-12-17T15:07:30.899Z,4.36
2022-12-17T15:10:00.695Z,4.38
2022-12-17T15:12:27.692Z,4.35
2022-12-17T15:14:54.178Z,4.35
2022-12-17T15:17:20.739Z,4.32
2022-12-17T15:19:51.372Z,4.24
2022-12-17T15:22:22.338Z,4.17
2022-12-17T15:24:49.296Z,4.23
2022-12-17T15:27:16.871Z,4.21
2022-12-17T15:29:45.028Z,4.21
2022-12-17T15:32:19.561Z,4.15
2022-12-17T15:34:46.627Z,4.14
2022-12-17T15:37:14.622Z,4.08
2022-12-17T15:39:41.297Z,4.07
2022-12-17T15:42:28.032Z,4.14
2022-12-17T15:44:54.644Z,4.08
2022-12-17T15:47:21.160Z,4.04
2022-12-17T15:49:47.704Z,4.07
2022-12-17T15:52:15.085Z,3.89
2022-12-17T15:54:44.952Z,3.93
2022-12-17T15:57:18.220Z,3.91
2022-12-17T15:59:45.120Z,3.76
2022-12-17T16:02:11.826Z,3.66
2022-12-17T16:04:38.648Z,3.70
2022-12-17T16:07:05.684Z,3.76
2022-12-17T16:09:32.523Z,3.79
2022-12-17T16:11:59.057Z,3.72
2022-12-17T16:14:25.795Z,3.73
2022-12-17T16:16:52.873Z,3.70
2022-12-17T16:19:22.419Z,3.78
2022-12-17T16:21:49.087Z,3.80
2022-12-17T16:24:15.594Z,3.81
2022-12-17T16:26:42.117Z,3.84
2022-12-17T16:29:08.631Z,3.95
2022-12-17T16:31:35.645Z,3.91
2022-12-17T16:34:02.191Z,3.97
2022-12-17T16:36:28.763Z,4.04
2022-12-17T16:38:55.324Z,4.07
2022-12-17T16:41:22.493Z,4.10
2022-12-17T16:43:49.209Z,4.09
2022-12-17T16:46:38.654Z,4.13
2022-12-17T16:49:18.815Z,3.82
2022-12-17T16:51:48.698Z,3.83
2022-12-17T16:54:17.859Z,3.83
2022-12-17T16:56:46.050Z,3.90
2022-12-17T16:59:14.425Z,3.91
2022-12-17T17:01:42.667Z,3.86
2022-12-17T17:04:10.801Z,3.87
2022-12-17T17:06:42.471Z,3.92
2022-12-17T17:09:09.234Z,3.79
2022-12-17T17:11:35.977Z,3.84
2022-12-17T17:14:03.144Z,3.85
2022-12-17T17:16:30.372Z,3.86
2022-12-17T17:18:57.425Z,3.87
2022-12-17T17:21:38.730Z,3.91
2022-12-17T17:24:20.746Z,3.84
2022-12-17T17:26:48.983Z,3.87
2022-12-17T17:29:15.506Z,3.82
2022-12-17T17:34:28.630Z,3.77
2022-12-17T17:36:55.156Z,3.88
2022-12-17T17:39:24.575Z,3.69
2022-12-17T17:41:51.710Z,3.77
2022-12-17T17:44:18.442Z,3.82
2022-12-17T17:46:45.249Z,3.80
2022-12-17T17:49:12.504Z,3.74
2022-12-17T17:54:29.027Z,3.44
2022-12-17T17:56:55.786Z,3.61
2022-12-17T17:59:29.199Z,3.43
2022-12-17T18:01:57.729Z,3.64
2022-12-17T18:04:24.457Z,3.54
2022-12-17T18:07:23.829Z,3.53
2022-12-17T18:09:39.063Z,3.54
2022-12-17T18:12:25.885Z,3.51
2022-12-17T18:15:13.093Z,3.65
2022-12-17T18:17:39.186Z,3.46
2022-12-17T18:20:06.329Z,3.53
2022-12-17T18:22:32.885Z,3.59
2022-12-17T18:24:59.377Z,3.85
2022-12-17T18:27:25.905Z,3.83
2022-12-17T18:29:52.471Z,3.77
2022-12-17T18:32:19.090Z,3.82
2022-12-17T18:34:45.674Z,3.82
2022-12-17T18:37:12.275Z,3.78
2022-12-17T18:39:38.878Z,3.58
2022-12-17T18:42:23.992Z,3.79
2022-12-17T18:44:50.529Z,3.73
2022-12-17T18:47:18.705Z,3.73
2022-12-17T18:49:45.345Z,3.76
2022-12-17T18:52:16.616Z,3.77
2022-12-17T18:54:43.876Z,3.74
2022-12-17T18:57:10.730Z,3.97
2022-12-17T18:59:37.450Z,3.83
2022-12-17T19:02:04.439Z,3.77
2022-12-17T19:04:32.795Z,3.72
2022-12-17T19:06:59.432Z,3.72
2022-12-17T19:09:28.991Z,3.98
2022-12-17T19:11:56.240Z,4.05
2022-12-17T19:14:23.644Z,3.98
2022-12-17T19:16:52.088Z,4.02
2022-12-17T19:19:19.624Z,4.00
2022-12-17T19:21:46.343Z,4.02
2022-12-17T19:24:15.580Z,3.91
2022-12-17T19:26:42.684Z,3.83
2022-12-17T19:29:11.954Z,3.93
2022-12-17T19:31:38.843Z,3.94
2022-12-17T19:34:07.441Z,3.91
2022-12-17T19:36:35.811Z,3.92
2022-12-17T19:39:05.995Z,3.89
2022-12-17T19:41:33.599Z,3.99
2022-12-17T19:44:02.976Z,3.98
2022-12-17T19:46:31.340Z,4.02
2022-12-17T19:48:58.059Z,3.91
2022-12-17T19:51:26.782Z,3.92
2022-12-17T19:53:55.034Z,3.93
2022-12-17T19:56:30.155Z,3.92
2022-12-17T19:59:00.703Z,3.94
2022-12-17T20:01:29.954Z,3.89
2022-12-17T20:03:56.932Z,3.87
2022-12-17T20:06:26.491Z,3.87
2022-12-17T20:08:54.332Z,3.86
2022-12-17T20:11:34.195Z,3.78
2022-12-17T20:14:11.612Z,3.75
2022-12-17T20:16:40.924Z,3.77
2022-12-17T20:19:10.950Z,3.67
2022-12-17T20:21:37.501Z,3.61
2022-12-17T20:24:04.394Z,3.66
2022-12-17T20:26:31.176Z,3.52
2022-12-17T20:28:59.068Z,3.50
2022-12-17T20:31:28.880Z,3.57
2022-12-17T20:33:55.591Z,3.60
2022-12-17T20:36:23.209Z,3.60
2022-12-17T20:38:49.791Z,3.50
2022-12-17T20:41:22.145Z,3.52
2022-12-17T20:43:49.766Z,3.65
2022-12-17T20:46:18.933Z,3.60
2022-12-17T20:48:46.223Z,3.51
2022-12-17T20:51:18.496Z,3.60
2022-12-17T20:53:45.893Z,3.60
2022-12-17T20:56:15.420Z,3.59
2022-12-17T20:58:43.037Z,3.65
2022-12-17T21:01:12.956Z,3.38
2022-12-17T21:03:40.207Z,3.45
2022-12-17T21:06:11.402Z,3.44
2022-12-17T21:08:42.301Z,3.42
2022-12-17T21:11:12.798Z,3.34
2022-12-17T21:13:39.367Z,3.41
2022-12-17T21:16:12.627Z,3.44
2022-12-17T21:18:40.402Z,3.51
2022-12-17T21:21:12.892Z,3.51
2022-12-17T21:23:40.766Z,3.49
2022-12-17T21:26:13.553Z,3.55
2022-12-17T21:28:42.456Z,3.62
2022-12-17T21:31:20.601Z,3.64
2022-12-17T21:33:48.138Z,3.59
2022-12-17T21:36:17.038Z,3.56
2022-12-17T21:38:43.906Z,3.71
2022-12-17T21:41:12.815Z,3.70
2022-12-17T21:43:40.241Z,3.65
2022-12-17T21:46:08.696Z,3.12
2022-12-17T21:48:41.571Z,3.53
2022-12-17T21:51:11.002Z,3.63
2022-12-17T21:53:42.084Z,3.53
2022-12-17T21:56:12.373Z,3.55
2022-12-17T21:58:40.043Z,3.62
2022-12-17T22:01:19.495Z,3.65
2022-12-17T22:03:54.013Z,3.76
2022-12-17T22:06:25.337Z,3.42
2022-12-17T22:09:01.155Z,3.65
2022-12-17T22:11:39.496Z,3.42
2022-12-17T22:14:10.059Z,3.32
2022-12-17T22:16:47.326Z,3.37
2022-12-17T22:19:20.289Z,3.55
2022-12-17T22:21:50.185Z,3.71
2022-12-17T22:24:20.062Z,3.59
2022-12-17T22:26:47.072Z,3.60
2022-12-17T22:29:34.138Z,3.59
2022-12-17T22:32:19.653Z,3.68
2022-12-17T22:35:55.147Z,3.49
2022-12-17T22:40:33.299Z,3.52
2022-12-17T22:44:02.164Z,3.37
2022-12-17T22:44:41.331Z,3.43
2022-12-17T22:46:16.650Z,3.36
2022-12-17T22:48:43.250Z,3.46
2022-12-17T22:51:13.143Z,3.41
2022-12-17T22:53:42.962Z,3.41
2022-12-17T22:56:25.090Z,3.48
2022-12-17T22:58:57.243Z,3.19
2022-12-17T23:01:23.972Z,3.35
2022-12-17T23:03:58.308Z,3.43
2022-12-17T23:06:26.111Z,3.52
2022-12-17T23:08:52.903Z,3.62
2022-12-17T23:11:22.699Z,3.72
2022-12-17T23:13:49.365Z,3.63
2022-12-17T23:16:16.463Z,3.50
2022-12-17T23:18:44.864Z,3.45
2022-12-17T23:21:12.730Z,3.46
2022-12-17T23:23:39.898Z,3.55
2022-12-17T23:26:37.063Z,3.33
2022-12-17T23:29:06.033Z,2.92
2022-12-17T23:31:36.207Z,3.31
2022-12-17T23:34:03.874Z,3.19
2022-12-17T23:36:30.472Z,3.49
2022-12-17T23:38:57.396Z,3.32
2022-12-17T23:41:26.887Z,3.27
2022-12-17T23:43:54.171Z,3.32
2022-12-17T23:46:21.900Z,3.25
2022-12-17T23:48:48.795Z,3.30
2022-12-17T23:51:17.105Z,3.26
2022-12-17T23:53:44.157Z,3.22
2022-12-17T23:56:20.173Z,3.04
2022-12-17T23:58:47.383Z,3.09
